Time;durP1;ratioP1;P1;durP2;ratioP2;P2;SDS_P1;SDS_P2;PMS_P1;PMS_P2;Temp;Humidity;BMP_temperature;BMP_pressure;BME280_temperature;BME280_humidity;BME280_pressure;Samples;Min_cycle;Max_cycle;Signal;HPM_P1;HPM_P2
2023/01/27 00:00:31;;;;;;;7.15;1.40;;;;;;;;;;4928380;28;93191;-78
2023/01/27 00:02:57;;;;;;;8.10;1.20;;;;;;;;;;4942765;28;92762;-79
2023/01/27 00:05:24;;;;;;;6.93;1.30;;;;;;;;;;4945895;28;92674;-79
2023/01/27 00:07:50;;;;;;;7.38;1.30;;;;;;;;;;4936432;28;93158;-79
2023/01/27 00:10:18;;;;;;;12.27;1.42;;;;;;;;;;4929265;28;92781;-79
2023/01/27 00:15:30;;;;;;;8.00;1.35;;;;;;;;;;4941367;28;99936;-80
2023/01/27 00:17:57;;;;;;;4.80;1.38;;;;;;;;;;4948350;28;94083;-79
2023/01/27 00:26:05;;;;;;;6.28;1.25;;;;;;;;;;4926616;28;93186;-79
2023/01/27 00:28:32;;;;;;;5.93;1.40;;;;;;;;;;4928537;28;94349;-79
2023/01/27 00:30:59;;;;;;;7.03;1.42;;;;;;;;;;4941325;28;95949;-80
2023/01/27 00:33:27;;;;;;;5.45;1.20;;;;;;;;;;4943576;28;92336;-80
2023/01/27 00:35:57;;;;;;;8.10;1.10;;;;;;;;;;4942786;28;93313;-79
2023/01/27 00:38:24;;;;;;;5.85;1.40;;;;;;;;;;4939293;28;100025;-79
2023/01/27 00:43:36;;;;;;;4.15;1.20;;;;;;;;;;4930628;28;95826;-80
2023/01/27 00:46:03;;;;;;;4.13;1.10;;;;;;;;;;4933019;28;93216;-79
2023/01/27 00:48:29;;;;;;;5.20;1.10;;;;;;;;;;4936017;28;92593;-79
2023/01/27 00:50:56;;;;;;;4.78;0.90;;;;;;;;;;4940768;28;92788;-79
2023/01/27 00:53:22;;;;;;;4.55;1.10;;;;;;;;;;4940803;28;93456;-80
2023/01/27 00:55:50;;;;;;;4.20;1.00;;;;;;;;;;4947064;28;95752;-80
2023/01/27 00:58:16;;;;;;;4.82;1.02;;;;;;;;;;4929543;28;93469;-79
2023/01/27 01:00:43;;;;;;;6.35;1.33;;;;;;;;;;4925986;28;92859;-80
2023/01/27 01:03:09;;;;;;;8.43;1.67;;;;;;;;;;4921518;28;95950;-80
2023/01/27 01:05:36;;;;;;;21.42;1.50;;;;;;;;;;4929930;28;93062;-81
2023/01/27 01:08:02;;;;;;;7.80;1.40;;;;;;;;;;4930853;28;92516;-82
2023/01/27 01:10:29;;;;;;;8.85;1.45;;;;;;;;;;4936720;28;92540;-81
2023/01/27 01:12:55;;;;;;;8.30;1.63;;;;;;;;;;4950119;28;92859;-81
2023/01/27 01:15:22;;;;;;;9.18;1.48;;;;;;;;;;4947020;28;92512;-81
2023/01/27 01:17:49;;;;;;;6.07;1.40;;;;;;;;;;4939092;28;94920;-82
2023/01/27 01:20:15;;;;;;;8.25;1.65;;;;;;;;;;4948193;28;92432;-82
2023/01/27 01:22:41;;;;;;;5.68;1.40;;;;;;;;;;4950543;28;92443;-81
2023/01/27 01:25:08;;;;;;;4.82;1.52;;;;;;;;;;4949690;28;93431;-81
2023/01/27 01:27:34;;;;;;;5.50;1.55;;;;;;;;;;4948691;28;94945;-80
2023/01/27 01:30:01;;;;;;;6.57;1.67;;;;;;;;;;4953809;28;94048;-80
2023/01/27 01:32:27;;;;;;;5.50;1.42;;;;;;;;;;4950181;28;93680;-80
2023/01/27 01:34:54;;;;;;;6.10;1.63;;;;;;;;;;4938650;28;92499;-80
2023/01/27 01:37:20;;;;;;;5.60;1.58;;;;;;;;;;4922657;28;99742;-81
2023/01/27 01:39:47;;;;;;;6.10;1.60;;;;;;;;;;4946421;28;92573;-83
2023/01/27 01:42:13;;;;;;;7.78;1.70;;;;;;;;;;4947969;28;93348;-80
2023/01/27 01:44:43;;;;;;;5.95;1.40;;;;;;;;;;4948628;28;92282;-80
2023/01/27 01:47:16;;;;;;;5.22;1.58;;;;;;;;;;4948532;28;92731;-80
2023/01/27 01:49:45;;;;;;;5.22;1.50;;;;;;;;;;4935461;28;93859;-80
2023/01/27 01:52:14;;;;;;;5.40;1.65;;;;;;;;;;4945148;28;95471;-81
2023/01/27 01:54:45;;;;;;;5.10;1.48;;;;;;;;;;4948898;28;92980;-80
2023/01/27 01:57:19;;;;;;;7.40;1.70;;;;;;;;;;4946929;28;95682;-80
2023/01/27 02:00:00;;;;;;;6.15;1.70;;;;;;;;;;4950761;28;95576;-80
2023/01/27 02:02:28;;;;;;;5.85;1.60;;;;;;;;;;4938431;28;97430;-80
2023/01/27 02:05:00;;;;;;;6.40;1.65;;;;;;;;;;4935708;28;92920;-79
2023/01/27 02:07:35;;;;;;;11.45;2.38;;;;;;;;;;4947840;28;92543;-80
2023/01/27 02:10:01;;;;;;;9.85;1.92;;;;;;;;;;4944856;28;92879;-79
2023/01/27 02:12:28;;;;;;;7.50;1.80;;;;;;;;;;4948824;28;93011;-80
2023/01/27 02:14:54;;;;;;;6.72;1.65;;;;;;;;;;4948628;28;92850;-80
2023/01/27 02:17:21;;;;;;;6.93;1.80;;;;;;;;;;4947666;28;95051;-80
2023/01/27 02:19:47;;;;;;;8.82;1.90;;;;;;;;;;4946749;28;95508;-81
2023/01/27 02:22:20;;;;;;;9.18;1.70;;;;;;;;;;4951118;28;92563;-81
2023/01/27 02:24:52;;;;;;;5.95;1.63;;;;;;;;;;4947186;28;94513;-80
2023/01/27 02:27:18;;;;;;;5.28;1.60;;;;;;;;;;4949531;28;92558;-81
2023/01/27 02:29:45;;;;;;;5.82;1.67;;;;;;;;;;4953328;28;93296;-80
2023/01/27 02:32:21;;;;;;;6.13;1.73;;;;;;;;;;4942790;28;94791;-81
2023/01/27 02:34:47;;;;;;;6.57;1.70;;;;;;;;;;4954431;28;91909;-81
2023/01/27 02:37:15;;;;;;;5.53;1.58;;;;;;;;;;4950173;28;95132;-80
2023/01/27 02:39:44;;;;;;;7.82;1.80;;;;;;;;;;4953466;28;95940;-81
2023/01/27 02:42:12;;;;;;;6.07;1.60;;;;;;;;;;4955933;28;95607;-81
2023/01/27 02:44:39;;;;;;;5.22;1.73;;;;;;;;;;4947743;28;95005;-81
2023/01/27 02:47:06;;;;;;;5.13;1.90;;;;;;;;;;4928482;28;92855;-80
2023/01/27 02:49:32;;;;;;;5.13;1.90;;;;;;;;;;4927812;28;95011;-79
2023/01/27 02:52:00;;;;;;;4.90;1.77;;;;;;;;;;4916299;28;95838;-79
2023/01/27 02:54:28;;;;;;;4.63;1.98;;;;;;;;;;4941568;28;92565;-80
2023/01/27 02:56:55;;;;;;;6.20;1.98;;;;;;;;;;4927862;28;95771;-80
2023/01/27 02:59:24;;;;;;;7.43;1.88;;;;;;;;;;4919651;28;94887;-79
2023/01/27 03:01:51;;;;;;;6.13;1.60;;;;;;;;;;4938128;28;93610;-80
2023/01/27 03:04:18;;;;;;;4.25;1.75;;;;;;;;;;4951703;28;95494;-79
2023/01/27 03:06:44;;;;;;;5.38;1.77;;;;;;;;;;4948407;28;94853;-80
2023/01/27 03:09:11;;;;;;;5.45;1.75;;;;;;;;;;4947317;28;98210;-80
2023/01/27 03:19:53;;;;;;;6.07;1.98;;;;;;;;;;4943082;28;95778;-80
2023/01/27 03:22:19;;;;;;;5.50;2.20;;;;;;;;;;4943483;28;92725;-80
2023/01/27 03:24:46;;;;;;;6.13;2.15;;;;;;;;;;4947072;28;95135;-80
2023/01/27 03:27:13;;;;;;;5.40;2.17;;;;;;;;;;4951103;28;92992;-80
2023/01/27 03:29:58;;;;;;;6.90;2.30;;;;;;;;;;4945845;28;92557;-80
2023/01/27 03:32:27;;;;;;;6.70;2.20;;;;;;;;;;4914934;28;98263;-80
2023/01/27 03:35:14;;;;;;;5.90;2.15;;;;;;;;;;4938309;28;93542;-80
2023/01/27 03:46:15;;;;;;;6.70;1.90;;;;;;;;;;4926645;28;94674;-79
2023/01/27 03:48:41;;;;;;;5.78;2.08;;;;;;;;;;4919686;28;93156;-80
2023/01/27 03:51:09;;;;;;;5.20;1.90;;;;;;;;;;4930024;28;92397;-81
2023/01/27 03:53:35;;;;;;;7.90;1.95;;;;;;;;;;4928586;28;93101;-80
2023/01/27 03:56:04;;;;;;;7.57;2.08;;;;;;;;;;4926929;28;92576;-80
2023/01/27 03:58:32;;;;;;;12.35;2.42;;;;;;;;;;4926525;28;95816;-80
2023/01/27 04:01:06;;;;;;;7.03;2.30;;;;;;;;;;4926769;28;93231;-80
2023/01/27 04:09:07;;;;;;;7.53;2.17;;;;;;;;;;4928753;28;93293;-81
2023/01/27 04:14:18;;;;;;;5.60;2.17;;;;;;;;;;4931064;28;93048;-81
2023/01/27 04:16:45;;;;;;;5.95;2.17;;;;;;;;;;4929409;28;91792;-81
2023/01/27 04:19:12;;;;;;;5.75;1.92;;;;;;;;;;4931198;28;92405;-82
2023/01/27 04:21:39;;;;;;;5.40;2.00;;;;;;;;;;4949840;28;93054;-81
2023/01/27 04:24:16;;;;;;;6.22;1.83;;;;;;;;;;4946872;28;95327;-81
2023/01/27 04:26:43;;;;;;;7.68;1.90;;;;;;;;;;4949089;28;95803;-81
2023/01/27 04:29:10;;;;;;;7.05;1.90;;;;;;;;;;4944943;28;93172;-80
2023/01/27 04:31:37;;;;;;;;;;;;;;;;;;4947443;28;92716;-80
2023/01/27 04:34:03;;;;;;;6.78;1.80;;;;;;;;;;4940296;28;120822;-80
2023/01/27 04:36:30;;;;;;;10.18;2.33;;;;;;;;;;4958328;28;93174;-80
2023/01/27 04:38:56;;;;;;;4.22;1.67;;;;;;;;;;4950939;28;95049;-80
2023/01/27 04:41:23;;;;;;;6.28;1.98;;;;;;;;;;4963714;28;94514;-80
2023/01/27 04:43:49;;;;;;;5.50;1.67;;;;;;;;;;4969794;28;92421;-79
2023/01/27 04:46:16;;;;;;;5.07;1.63;;;;;;;;;;4960314;28;93033;-79
2023/01/27 04:48:42;;;;;;;3.88;1.70;;;;;;;;;;4938354;28;94874;-79
2023/01/27 04:51:08;;;;;;;5.53;1.80;;;;;;;;;;4946298;28;92438;-80
2023/01/27 04:53:35;;;;;;;6.25;1.80;;;;;;;;;;4942521;28;95180;-80
2023/01/27 04:56:03;;;;;;;3.88;1.50;;;;;;;;;;4946624;28;93362;-81
2023/01/27 04:58:29;;;;;;;5.80;2.00;;;;;;;;;;4939081;28;92904;-81
2023/01/27 05:00:56;;;;;;;4.47;1.67;;;;;;;;;;4944409;28;93696;-81
2023/01/27 05:03:22;;;;;;;5.30;1.75;;;;;;;;;;4930819;28;92952;-81
2023/01/27 05:05:49;;;;;;;3.58;1.50;;;;;;;;;;4912991;28;94817;-82
2023/01/27 05:08:15;;;;;;;4.10;1.58;;;;;;;;;;4930368;28;94345;-81
2023/01/27 05:10:43;;;;;;;6.70;1.80;;;;;;;;;;4932672;28;92845;-82
2023/01/27 05:13:10;;;;;;;4.25;1.60;;;;;;;;;;4930434;28;95481;-81
2023/01/27 05:15:37;;;;;;;3.13;1.35;;;;;;;;;;4932110;28;92840;-81
2023/01/27 05:18:03;;;;;;;4.78;1.70;;;;;;;;;;4934392;28;93056;-81
2023/01/27 05:20:30;;;;;;;3.35;1.50;;;;;;;;;;4931005;28;94164;-81
2023/01/27 05:23:34;;;;;;;8.05;1.50;;;;;;;;;;4937749;28;92794;-81
2023/01/27 05:25:44;;;;;;;2.60;1.23;;;;;;;;;;4924537;28;92430;-82
2023/01/27 05:28:10;;;;;;;5.70;1.33;;;;;;;;;;4932575;28;93260;-80
2023/01/27 05:30:37;;;;;;;2.67;1.30;;;;;;;;;;4932674;28;92148;-81
2023/01/27 05:33:03;;;;;;;4.78;1.30;;;;;;;;;;4927354;28;94934;-81
2023/01/27 05:35:33;;;;;;;2.78;1.25;;;;;;;;;;4928873;28;93905;-81
2023/01/27 05:37:59;;;;;;;3.28;1.23;;;;;;;;;;4916346;28;95341;-80
2023/01/27 05:40:26;;;;;;;3.78;1.33;;;;;;;;;;4912403;28;96017;-80
2023/01/27 05:42:53;;;;;;;2.65;1.30;;;;;;;;;;4928037;28;92525;-80
2023/01/27 05:45:19;;;;;;;3.80;1.30;;;;;;;;;;4936237;28;92796;-80
2023/01/27 05:47:49;;;;;;;3.05;1.20;;;;;;;;;;4930524;28;100096;-80
2023/01/27 05:50:16;;;;;;;3.03;1.30;;;;;;;;;;4930362;28;93238;-80
2023/01/27 05:52:42;;;;;;;3.45;1.48;;;;;;;;;;4931061;28;92531;-80
2023/01/27 05:55:09;;;;;;;2.28;1.20;;;;;;;;;;4927223;28;92532;-80
2023/01/27 05:57:35;;;;;;;2.58;1.20;;;;;;;;;;4930477;28;92566;-80
2023/01/27 06:00:02;;;;;;;3.22;1.15;;;;;;;;;;4930146;28;92928;-80
2023/01/27 06:02:33;;;;;;;4.43;1.30;;;;;;;;;;4929782;28;95453;-82
2023/01/27 06:04:59;;;;;;;1.80;1.10;;;;;;;;;;4917617;28;95254;-82
2023/01/27 06:07:26;;;;;;;5.10;1.40;;;;;;;;;;4929509;28;93637;-82
2023/01/27 06:09:52;;;;;;;3.05;1.23;;;;;;;;;;4919556;28;92821;-81
2023/01/27 06:12:19;;;;;;;6.35;1.48;;;;;;;;;;4930667;28;93889;-82
2023/01/27 06:14:45;;;;;;;5.78;1.33;;;;;;;;;;4929994;28;93499;-81
2023/01/27 06:17:12;;;;;;;3.47;1.30;;;;;;;;;;4931873;28;92873;-80
2023/01/27 06:19:38;;;;;;;3.03;1.20;;;;;;;;;;4931596;28;93326;-80
2023/01/27 06:22:04;;;;;;;2.33;1.20;;;;;;;;;;4943357;28;94482;-80
2023/01/27 06:24:31;;;;;;;4.00;1.17;;;;;;;;;;4936723;28;93179;-80
2023/01/27 06:26:57;;;;;;;3.38;1.20;;;;;;;;;;4931517;28;95547;-80
2023/01/27 06:29:24;;;;;;;4.03;1.17;;;;;;;;;;4930662;28;92492;-80
2023/01/27 06:31:50;;;;;;;2.78;1.20;;;;;;;;;;4944461;28;99314;-80
2023/01/27 06:34:17;;;;;;;2.40;1.23;;;;;;;;;;4932571;28;93051;-80
2023/01/27 06:36:43;;;;;;;3.42;1.50;;;;;;;;;;4942574;28;92640;-80
2023/01/27 06:39:10;;;;;;;3.03;1.10;;;;;;;;;;4930604;28;92456;-80
2023/01/27 06:41:37;;;;;;;3.20;1.10;;;;;;;;;;4930348;28;93403;-79
2023/01/27 06:44:03;;;;;;;3.58;1.20;;;;;;;;;;4931255;28;92243;-78
2023/01/27 06:46:30;;;;;;;3.00;1.10;;;;;;;;;;4938817;28;92756;-79
2023/01/27 06:48:56;;;;;;;2.33;1.10;;;;;;;;;;4919012;28;92900;-79
2023/01/27 06:51:23;;;;;;;2.92;1.23;;;;;;;;;;4927080;28;95396;-79
2023/01/27 06:53:49;;;;;;;2.95;1.20;;;;;;;;;;4929919;28;93099;-80
2023/01/27 06:56:16;;;;;;;2.38;1.17;;;;;;;;;;4934851;28;93002;-79
2023/01/27 06:58:43;;;;;;;3.83;1.08;;;;;;;;;;4936878;28;92901;-79
2023/01/27 07:01:09;;;;;;;5.43;1.35;;;;;;;;;;4927398;28;93017;-79
2023/01/27 07:03:36;;;;;;;4.15;1.30;;;;;;;;;;4926342;28;92650;-79
2023/01/27 07:06:02;;;;;;;2.75;1.20;;;;;;;;;;4920794;28;96508;-80
2023/01/27 07:08:30;;;;;;;;;;;;;;;;;;4931029;28;92753;-79
2023/01/27 07:10:57;;;;;;;6.13;1.25;;;;;;;;;;4930438;28;121309;-79
2023/01/27 07:13:23;;;;;;;2.13;1.05;;;;;;;;;;4937038;28;93189;-79
2023/01/27 07:15:54;;;;;;;3.83;1.20;;;;;;;;;;4941654;28;95619;-79
2023/01/27 07:18:20;;;;;;;4.93;1.40;;;;;;;;;;4947627;28;95328;-80
2023/01/27 07:20:47;;;;;;;3.92;1.10;;;;;;;;;;4948503;28;94300;-79
2023/01/27 07:23:13;;;;;;;5.53;1.20;;;;;;;;;;4949481;28;92447;-79
2023/01/27 07:25:40;;;;;;;3.33;1.10;;;;;;;;;;4949791;28;92913;-79
2023/01/27 07:28:06;;;;;;;3.50;1.17;;;;;;;;;;4939923;28;93366;-79
2023/01/27 07:30:33;;;;;;;2.80;1.17;;;;;;;;;;4929270;28;92836;-80
2023/01/27 07:33:03;;;;;;;1.88;1.00;;;;;;;;;;4930324;28;92330;-80
2023/01/27 07:35:30;;;;;;;1.60;1.00;;;;;;;;;;4939632;28;92448;-80
2023/01/27 07:37:57;;;;;;;2.60;1.20;;;;;;;;;;4916499;28;92664;-79
2023/01/27 07:40:23;;;;;;;5.28;1.15;;;;;;;;;;4905733;28;97653;-80
2023/01/27 07:42:49;;;;;;;3.40;1.13;;;;;;;;;;4914471;28;92632;-79
2023/01/27 07:45:16;;;;;;;3.28;1.13;;;;;;;;;;4926828;28;96354;-80
2023/01/27 07:47:42;;;;;;;5.30;1.25;;;;;;;;;;4926668;28;93171;-79
2023/01/27 07:50:11;;;;;;;3.00;1.10;;;;;;;;;;4923545;28;92463;-80
2023/01/27 07:52:38;;;;;;;2.80;0.98;;;;;;;;;;4932026;28;93171;-80
2023/01/27 07:55:04;;;;;;;5.47;0.98;;;;;;;;;;4918822;28;92808;-80
2023/01/27 07:57:31;;;;;;;4.78;1.10;;;;;;;;;;4926175;28;92604;-79
2023/01/27 07:59:57;;;;;;;3.25;1.00;;;;;;;;;;4909787;28;96670;-81
2023/01/27 08:02:25;;;;;;;3.03;0.90;;;;;;;;;;4918143;28;92891;-80
2023/01/27 08:04:51;;;;;;;2.75;0.90;;;;;;;;;;4936085;28;95549;-81
2023/01/27 08:07:19;;;;;;;3.30;0.85;;;;;;;;;;4947700;28;94181;-80
2023/01/27 08:09:46;;;;;;;2.70;0.90;;;;;;;;;;4948160;28;92833;-77
2023/01/27 08:12:12;;;;;;;2.17;1.00;;;;;;;;;;4948389;28;92722;-77
2023/01/27 08:14:38;;;;;;;5.13;1.00;;;;;;;;;;4947980;28;92799;-78
2023/01/27 08:17:05;;;;;;;4.78;0.82;;;;;;;;;;4935248;28;93237;-77
2023/01/27 08:19:31;;;;;;;2.83;0.93;;;;;;;;;;4946264;28;93979;-77
2023/01/27 08:21:58;;;;;;;5.07;0.77;;;;;;;;;;4945190;28;91648;-77
2023/01/27 08:24:24;;;;;;;1.50;0.75;;;;;;;;;;4929036;28;92863;-78
2023/01/27 08:26:51;;;;;;;2.45;0.82;;;;;;;;;;4928384;28;93018;-78
2023/01/27 08:29:17;;;;;;;4.13;0.90;;;;;;;;;;4922604;28;94865;-79
2023/01/27 08:31:44;;;;;;;4.75;0.95;;;;;;;;;;4931708;28;97170;-79
2023/01/27 08:34:10;;;;;;;1.38;0.60;;;;;;;;;;4946814;28;93295;-79
2023/01/27 08:36:39;;;;;;;2.35;0.90;;;;;;;;;;4942466;28;92836;-79
2023/01/27 08:39:05;;;;;;;2.17;0.73;;;;;;;;;;4946458;28;92936;-80
2023/01/27 08:41:31;;;;;;;3.20;0.90;;;;;;;;;;4944362;28;92749;-79
2023/01/27 08:43:58;;;;;;;2.10;0.80;;;;;;;;;;4945885;28;92774;-79
2023/01/27 08:46:24;;;;;;;2.35;0.80;;;;;;;;;;4947116;28;92417;-79
2023/01/27 08:48:51;;;;;;;3.60;0.80;;;;;;;;;;4947695;28;92784;-79
2023/01/27 08:51:17;;;;;;;1.40;0.73;;;;;;;;;;4945046;28;92512;-83
2023/01/27 08:53:44;;;;;;;1.35;0.60;;;;;;;;;;4944633;28;95557;-81
2023/01/27 08:56:11;;;;;;;1.77;0.80;;;;;;;;;;4954301;28;92432;-79
2023/01/27 08:58:40;;;;;;;1.75;0.82;;;;;;;;;;4954219;28;92988;-80
2023/01/27 09:01:07;;;;;;;1.55;0.70;;;;;;;;;;4943456;28;93388;-79
2023/01/27 09:03:33;;;;;;;1.52;0.70;;;;;;;;;;4947715;28;93277;-79
2023/01/27 09:06:02;;;;;;;1.75;0.60;;;;;;;;;;4949113;28;94348;-80
2023/01/27 09:08:29;;;;;;;1.50;0.60;;;;;;;;;;4949819;28;92734;-79
2023/01/27 09:10:55;;;;;;;1.88;0.60;;;;;;;;;;4951579;28;92854;-79
2023/01/27 09:13:22;;;;;;;2.13;0.70;;;;;;;;;;4947495;28;93260;-79
2023/01/27 09:15:52;;;;;;;0.93;0.57;;;;;;;;;;4946568;28;93246;-79
2023/01/27 09:18:19;;;;;;;1.20;0.57;;;;;;;;;;4947268;28;95554;-79
2023/01/27 09:20:45;;;;;;;1.13;0.60;;;;;;;;;;4950567;28;92590;-80
2023/01/27 09:23:12;;;;;;;1.77;0.63;;;;;;;;;;4952579;28;92931;-78
2023/01/27 09:25:38;;;;;;;1.60;0.80;;;;;;;;;;4951627;28;93208;-79
2023/01/27 09:28:05;;;;;;;4.70;0.70;;;;;;;;;;4942333;28;92792;-79
2023/01/27 09:30:32;;;;;;;4.72;0.60;;;;;;;;;;4943850;28;93649;-79
2023/01/27 09:32:59;;;;;;;1.25;0.60;;;;;;;;;;4942234;28;95595;-79
2023/01/27 09:35:29;;;;;;;1.80;0.63;;;;;;;;;;4944007;28;91981;-79
2023/01/27 09:37:56;;;;;;;2.88;0.60;;;;;;;;;;4948261;28;94106;-78
2023/01/27 09:40:37;;;;;;;1.02;0.60;;;;;;;;;;4941137;28;93409;-78
2023/01/27 09:43:09;;;;;;;2.85;0.70;;;;;;;;;;4944467;28;96044;-79
2023/01/27 09:46:00;;;;;;;4.13;0.77;;;;;;;;;;4936800;28;93061;-79
2023/01/27 09:48:30;;;;;;;1.90;0.70;;;;;;;;;;4937979;28;92717;-79
2023/01/27 09:51:18;;;;;;;1.55;0.70;;;;;;;;;;4942788;28;93041;-80
2023/01/27 09:53:45;;;;;;;2.97;0.80;;;;;;;;;;4930364;28;93015;-81
2023/01/27 09:56:26;;;;;;;1.00;0.57;;;;;;;;;;4948582;28;92425;-80
2023/01/27 09:58:52;;;;;;;1.85;0.63;;;;;;;;;;4969021;28;92922;-79
2023/01/27 10:01:19;;;;;;;1.13;0.60;;;;;;;;;;4957606;28;91954;-79
2023/01/27 10:04:00;;;;;;;0.93;0.52;;;;;;;;;;4948040;28;92415;-80
2023/01/27 10:06:39;;;;;;;0.85;0.52;;;;;;;;;;4935182;28;98033;-80
2023/01/27 10:09:14;;;;;;;2.25;0.85;;;;;;;;;;4942148;28;95161;-80
2023/01/27 10:11:48;;;;;;;1.83;0.70;;;;;;;;;;4935381;28;96430;-80
2023/01/27 10:14:17;;;;;;;1.50;0.63;;;;;;;;;;4927848;28;96317;-80
2023/01/27 10:16:59;;;;;;;1.45;0.70;;;;;;;;;;4943789;28;92862;-79
2023/01/27 10:19:34;;;;;;;0.95;0.65;;;;;;;;;;4932421;28;93020;-80
2023/01/27 10:22:22;;;;;;;1.80;0.70;;;;;;;;;;4940089;28;93720;-81
2023/01/27 10:24:58;;;;;;;1.45;0.70;;;;;;;;;;4932049;28;92967;-79
2023/01/27 10:27:29;;;;;;;1.52;0.60;;;;;;;;;;4936928;28;93609;-80
2023/01/27 10:30:16;;;;;;;1.10;0.55;;;;;;;;;;4939033;28;92445;-80
2023/01/27 10:32:44;;;;;;;1.63;0.75;;;;;;;;;;4933633;28;102092;-80
2023/01/27 10:35:17;;;;;;;1.17;0.65;;;;;;;;;;4940433;28;95699;-80
2023/01/27 10:37:52;;;;;;;1.20;0.60;;;;;;;;;;4944101;28;92504;-80
2023/01/27 10:40:22;;;;;;;0.63;0.50;;;;;;;;;;4944293;28;92664;-80
2023/01/27 10:42:52;;;;;;;1.80;0.70;;;;;;;;;;4944511;28;96606;-80
2023/01/27 10:45:39;;;;;;;0.73;0.70;;;;;;;;;;4947116;28;93098;-80
2023/01/27 10:48:42;;;;;;;2.47;0.70;;;;;;;;;;4949965;28;92888;-79
2023/01/27 10:51:12;;;;;;;4.25;0.70;;;;;;;;;;4925057;28;94054;-79
2023/01/27 10:53:44;;;;;;;3.47;0.68;;;;;;;;;;4938580;28;93125;-79
2023/01/27 10:56:11;;;;;;;1.27;0.70;;;;;;;;;;4947350;28;93345;-80
2023/01/27 10:58:47;;;;;;;1.75;0.60;;;;;;;;;;4947506;28;92843;-80
2023/01/27 11:01:16;;;;;;;2.45;0.63;;;;;;;;;;4946110;28;95048;-79
2023/01/27 11:03:51;;;;;;;3.80;0.70;;;;;;;;;;4945438;28;92993;-78
2023/01/27 11:06:22;;;;;;;2.08;0.60;;;;;;;;;;4942349;28;92517;-78
2023/01/27 11:08:54;;;;;;;4.80;0.82;;;;;;;;;;4951013;28;93307;-77
2023/01/27 11:12:06;;;;;;;5.10;0.60;;;;;;;;;;4935096;28;92640;-78
2023/01/27 11:14:22;;;;;;;2.80;0.80;;;;;;;;;;4941316;28;95263;-78
2023/01/27 11:17:11;;;;;;;3.47;0.80;;;;;;;;;;4942675;28;97232;-77
2023/01/27 11:19:43;;;;;;;2.65;0.70;;;;;;;;;;4943308;28;92285;-78
2023/01/27 11:22:20;;;;;;;3.13;0.70;;;;;;;;;;4940357;28;95119;-78
2023/01/27 11:25:11;;;;;;;1.17;0.60;;;;;;;;;;4943572;28;94340;-77
2023/01/27 11:27:56;;;;;;;2.58;0.60;;;;;;;;;;4941319;28;95160;-78
2023/01/27 11:30:26;;;;;;;3.10;0.70;;;;;;;;;;4945887;28;99977;-78
2023/01/27 11:32:58;;;;;;;1.80;0.70;;;;;;;;;;4948753;28;94531;-78
2023/01/27 11:35:25;;;;;;;2.40;0.80;;;;;;;;;;4946984;28;92951;-78
2023/01/27 11:37:52;;;;;;;2.72;0.52;;;;;;;;;;4945144;28;93190;-78
2023/01/27 11:40:32;;;;;;;2.80;0.60;;;;;;;;;;4947601;28;92552;-78
2023/01/27 11:42:59;;;;;;;1.13;0.52;;;;;;;;;;4935783;28;93099;-78
2023/01/27 11:45:26;;;;;;;1.67;0.60;;;;;;;;;;4937751;28;93752;-79
2023/01/27 11:47:55;;;;;;;0.90;0.60;;;;;;;;;;4937152;28;92760;-80
2023/01/27 11:50:23;;;;;;;1.65;0.75;;;;;;;;;;4910355;28;99272;-80
2023/01/27 11:52:53;;;;;;;0.82;0.60;;;;;;;;;;4931315;28;95669;-79
2023/01/27 11:55:25;;;;;;;1.10;0.60;;;;;;;;;;4938949;28;93150;-81
2023/01/27 11:57:55;;;;;;;1.33;0.43;;;;;;;;;;4938479;28;93461;-80
2023/01/27 12:00:24;;;;;;;1.02;0.65;;;;;;;;;;4937482;28;92505;-80
2023/01/27 12:03:04;;;;;;;2.20;0.50;;;;;;;;;;4935836;28;92695;-81
2023/01/27 12:05:32;;;;;;;2.25;0.68;;;;;;;;;;4932507;28;93014;-80
2023/01/27 12:08:00;;;;;;;2.58;0.68;;;;;;;;;;4941275;28;92992;-79
2023/01/27 12:10:34;;;;;;;2.50;0.70;;;;;;;;;;4934449;28;93427;-80
2023/01/27 12:13:07;;;;;;;1.58;0.55;;;;;;;;;;4934367;28;93080;-80
2023/01/27 12:15:34;;;;;;;;;;;;;;;;;;4946399;28;93062;-80
2023/01/27 12:18:19;;;;;;;3.17;0.70;;;;;;;;;;4939540;28;94984;-78
2023/01/27 12:20:46;;;;;;;2.83;0.90;;;;;;;;;;4946764;28;92825;-79
2023/01/27 12:23:12;;;;;;;1.83;0.73;;;;;;;;;;4953011;28;93368;-79
2023/01/27 12:25:42;;;;;;;2.97;0.80;;;;;;;;;;4957411;28;93131;-79
2023/01/27 12:28:17;;;;;;;2.53;0.63;;;;;;;;;;4960213;28;92936;-80
2023/01/27 12:30:45;;;;;;;2.83;0.80;;;;;;;;;;4959491;28;92557;-79
2023/01/27 12:33:13;;;;;;;2.15;0.85;;;;;;;;;;4948620;28;92648;-81
2023/01/27 12:35:39;;;;;;;1.95;0.60;;;;;;;;;;4953644;28;91955;-80
2023/01/27 12:38:13;;;;;;;5.32;1.00;;;;;;;;;;4958375;28;92507;-79
2023/01/27 12:40:42;;;;;;;6.70;0.95;;;;;;;;;;4963944;28;93200;-80
2023/01/27 12:43:10;;;;;;;8.95;0.90;;;;;;;;;;4953809;28;95237;-80
2023/01/27 12:45:37;;;;;;;7.50;1.35;;;;;;;;;;4954689;28;92859;-80
2023/01/27 12:48:12;;;;;;;5.30;0.90;;;;;;;;;;4954501;28;92672;-79
2023/01/27 12:50:40;;;;;;;5.65;0.80;;;;;;;;;;4947981;28;92821;-80
2023/01/27 12:53:16;;;;;;;5.15;0.80;;;;;;;;;;4948649;28;94437;-80
2023/01/27 12:56:00;;;;;;;3.22;0.70;;;;;;;;;;4946777;28;93203;-80
2023/01/27 12:58:34;;;;;;;3.53;0.73;;;;;;;;;;4946049;28;100183;-80
2023/01/27 13:01:20;;;;;;;4.72;0.80;;;;;;;;;;4949913;28;92836;-80
2023/01/27 13:03:57;;;;;;;3.58;0.73;;;;;;;;;;4952045;28;93124;-79
2023/01/27 13:06:29;;;;;;;2.33;0.80;;;;;;;;;;4939268;28;98753;-79
2023/01/27 13:08:56;;;;;;;2.15;0.60;;;;;;;;;;4943365;28;96283;-79
2023/01/27 13:11:29;;;;;;;1.92;0.60;;;;;;;;;;4946264;28;95166;-79
2023/01/27 13:13:56;;;;;;;3.00;0.80;;;;;;;;;;4945292;28;93224;-76
2023/01/27 13:16:27;;;;;;;2.08;0.60;;;;;;;;;;4947765;28;92564;-80
2023/01/27 13:18:55;;;;;;;0.80;0.68;;;;;;;;;;4945561;28;92506;-79
2023/01/27 13:21:24;;;;;;;3.28;0.55;;;;;;;;;;4950152;28;92682;-80
2023/01/27 13:23:51;;;;;;;1.15;0.60;;;;;;;;;;4951797;28;93129;-79
2023/01/27 13:26:28;;;;;;;1.15;0.60;;;;;;;;;;4947034;28;92214;-79
2023/01/27 13:28:57;;;;;;;1.67;0.70;;;;;;;;;;4947664;28;92920;-80
2023/01/27 13:31:29;;;;;;;2.38;0.60;;;;;;;;;;4946442;28;92876;-79
2023/01/27 13:34:12;;;;;;;1.65;0.60;;;;;;;;;;4940778;28;95592;-80
2023/01/27 13:36:40;;;;;;;0.80;0.50;;;;;;;;;;4946248;28;94030;-79
2023/01/27 13:39:17;;;;;;;1.08;0.47;;;;;;;;;;4949552;28;92765;-79
2023/01/27 13:41:50;;;;;;;1.38;0.68;;;;;;;;;;4950444;28;93301;-79
2023/01/27 13:44:17;;;;;;;1.45;0.60;;;;;;;;;;4946457;28;92562;-80
2023/01/27 13:46:44;;;;;;;1.02;0.45;;;;;;;;;;4947567;28;92804;-78
2023/01/27 13:49:24;;;;;;;2.65;0.70;;;;;;;;;;4953474;28;92687;-80
2023/01/27 13:51:51;;;;;;;0.52;0.50;;;;;;;;;;4931084;28;95132;-80
2023/01/27 13:54:17;;;;;;;0.45;0.45;;;;;;;;;;4952162;28;93870;-80
2023/01/27 13:57:07;;;;;;;1.10;0.50;;;;;;;;;;4953872;28;92607;-80
2023/01/27 13:59:43;;;;;;;1.70;0.57;;;;;;;;;;4941560;28;95848;-79
2023/01/27 14:02:12;;;;;;;2.75;0.80;;;;;;;;;;4942314;28;92933;-79
2023/01/27 14:04:57;;;;;;;0.98;0.60;;;;;;;;;;4928884;28;93081;-79
2023/01/27 14:07:24;;;;;;;;;;;;;;;;;;4928554;28;94455;-79
2023/01/27 14:09:57;;;;;;;2.05;0.70;;;;;;;;;;4933364;28;123202;-79
2023/01/27 14:12:47;;;;;;;1.05;0.50;;;;;;;;;;4926068;28;97358;-79
2023/01/27 14:15:26;;;;;;;1.63;0.60;;;;;;;;;;4928604;28;94719;-79
2023/01/27 14:17:56;;;;;;;1.50;0.70;;;;;;;;;;4927341;28;91982;-78
2023/01/27 14:20:41;;;;;;;0.93;0.43;;;;;;;;;;4926918;28;96478;-79
2023/01/27 14:23:10;;;;;;;2.75;0.73;;;;;;;;;;4936611;28;93092;-79
2023/01/27 14:25:51;;;;;;;2.33;0.98;;;;;;;;;;4945128;28;95268;-79
2023/01/27 14:28:21;;;;;;;3.20;1.05;;;;;;;;;;4948277;28;96639;-78
2023/01/27 14:30:54;;;;;;;3.67;1.23;;;;;;;;;;4945833;28;93185;-79
2023/01/27 14:33:33;;;;;;;2.38;1.10;;;;;;;;;;4934194;28;92671;-79
2023/01/27 14:36:09;;;;;;;3.33;1.10;;;;;;;;;;4937539;28;92927;-78
2023/01/27 14:38:54;;;;;;;2.22;1.00;;;;;;;;;;4943670;28;92996;-79
2023/01/27 14:41:29;;;;;;;3.00;1.10;;;;;;;;;;4928901;28;93705;-79
2023/01/27 14:43:55;;;;;;;2.65;1.08;;;;;;;;;;4928518;28;92536;-78
2023/01/27 14:46:24;;;;;;;2.70;1.10;;;;;;;;;;4941000;28;92807;-78
2023/01/27 14:49:06;;;;;;;4.50;1.08;;;;;;;;;;4943400;28;92686;-78
2023/01/27 14:51:51;;;;;;;4.90;1.10;;;;;;;;;;4933334;28;97724;-78
2023/01/27 14:54:21;;;;;;;3.58;1.08;;;;;;;;;;4948767;28;92639;-78
2023/01/27 14:56:59;;;;;;;3.30;1.30;;;;;;;;;;4948501;28;93631;-78
2023/01/27 14:59:36;;;;;;;2.05;1.02;;;;;;;;;;4944929;28;92846;-79
2023/01/27 15:02:32;;;;;;;3.72;1.13;;;;;;;;;;4946902;28;94075;-80
2023/01/27 15:05:13;;;;;;;2.90;1.20;;;;;;;;;;4943342;28;93818;-79
2023/01/27 15:07:49;;;;;;;2.80;1.00;;;;;;;;;;4940094;28;92945;-79
2023/01/27 15:10:23;;;;;;;2.63;1.00;;;;;;;;;;4942192;28;93206;-79
2023/01/27 15:13:02;;;;;;;4.43;0.90;;;;;;;;;;4946520;28;93688;-79
2023/01/27 15:15:46;;;;;;;1.45;0.90;;;;;;;;;;4942985;28;92902;-79
2023/01/27 15:18:13;;;;;;;1.95;1.00;;;;;;;;;;4942472;28;94958;-78
2023/01/27 15:21:01;;;;;;;2.50;0.90;;;;;;;;;;4947960;28;93375;-79
2023/01/27 15:23:46;;;;;;;2.90;1.08;;;;;;;;;;4933218;28;92914;-79
2023/01/27 15:26:14;;;;;;;0.98;0.80;;;;;;;;;;4943757;28;96263;-79
2023/01/27 15:28:42;;;;;;;2.22;0.90;;;;;;;;;;4945579;28;92650;-80
2023/01/27 15:31:08;;;;;;;;;;;;;;;;;;4946657;28;92887;-79
2023/01/27 15:33:47;;;;;;;2.58;0.88;;;;;;;;;;4945637;28;115202;-79
2023/01/27 15:36:16;;;;;;;4.47;0.90;;;;;;;;;;4944152;28;92368;-79